createdAt,value
2017-09-30T00:01:10.253Z,94792.23
2017-09-30T00:03:38.006Z,94790.58
2017-09-30T00:06:05.731Z,94794.83
2017-09-30T00:08:33.670Z,94791.53
2017-09-30T00:11:01.402Z,94785.63
2017-09-30T00:13:29.517Z,94785.44
2017-09-30T00:15:57.269Z,94782.14
2017-09-30T00:18:25.013Z,94782.38
2017-09-30T00:20:52.755Z,94784.98
2017-09-30T00:23:20.448Z,94779.97
2017-09-30T00:25:48.203Z,94776.98
2017-09-30T00:28:15.907Z,94775.88
2017-09-30T00:30:43.609Z,94769.09
2017-09-30T00:33:12.562Z,94760.42
2017-09-30T00:35:40.324Z,94764.48
2017-09-30T00:38:08.099Z,94759.99
2017-09-30T00:40:35.817Z,94760.49
2017-09-30T00:43:03.612Z,94760.53
2017-09-30T00:45:31.317Z,94764.32
2017-09-30T00:47:59.102Z,94759.46
2017-09-30T00:50:26.913Z,94765.45
2017-09-30T00:52:54.705Z,94763.02
2017-09-30T00:55:22.545Z,94763.32
2017-09-30T00:57:50.308Z,94765.21
2017-09-30T01:00:18.086Z,94759.42
2017-09-30T01:02:45.826Z,94757.13
2017-09-30T01:05:13.528Z,94752.93
2017-09-30T01:07:41.277Z,94752.62
2017-09-30T01:10:09.044Z,94754.42
2017-09-30T01:12:36.764Z,94749.04
2017-09-30T01:15:04.571Z,94748.27
2017-09-30T01:17:32.254Z,94742.27
2017-09-30T01:20:00.190Z,94744.47
2017-09-30T01:22:28.020Z,94736.59
2017-09-30T01:24:55.856Z,94734.39
2017-09-30T01:27:23.641Z,94739.67
2017-09-30T01:29:51.444Z,94739.06
2017-09-30T01:32:19.194Z,94737.06
2017-09-30T01:34:47.020Z,94727.60
2017-09-30T01:37:14.787Z,94728.58
2017-09-30T01:39:42.524Z,94730.30
2017-09-30T01:42:10.328Z,94721.39
2017-09-30T01:44:38.078Z,94723.70
2017-09-30T01:47:05.880Z,94724.59
2017-09-30T01:49:33.658Z,94724.98
2017-09-30T01:52:02.084Z,94725.59
2017-09-30T01:54:29.863Z,94721.81
2017-09-30T01:56:57.757Z,94723.11
2017-09-30T01:59:25.842Z,94726.98
2017-09-30T02:01:53.635Z,94724.11
2017-09-30T02:04:21.386Z,94723.39
2017-09-30T02:06:49.268Z,94719.70
2017-09-30T02:09:17.004Z,94723.48
2017-09-30T02:11:44.727Z,94722.28
2017-09-30T02:14:12.459Z,94719.11
2017-09-30T02:16:40.176Z,94716.17
2017-09-30T02:19:08.083Z,94714.08
2017-09-30T02:21:36.151Z,94713.02
2017-09-30T02:24:04.330Z,94714.28
2017-09-30T02:26:32.045Z,94709.51
2017-09-30T02:28:59.778Z,94710.06
2017-09-30T02:31:27.508Z,94708.09
2017-09-30T02:33:55.303Z,94715.65
2017-09-30T02:36:22.969Z,94712.23
2017-09-30T02:38:50.728Z,94711.20
2017-09-30T02:41:18.508Z,94710.97
2017-09-30T02:43:46.200Z,94716.24
2017-09-30T02:46:13.937Z,94712.25
2017-09-30T02:48:41.610Z,94708.80
2017-09-30T02:51:09.434Z,94709.59
2017-09-30T02:53:37.112Z,94707.27
2017-09-30T02:56:04.859Z,94712.66
2017-09-30T02:58:32.725Z,94712.34
2017-09-30T03:01:00.429Z,94712.02
2017-09-30T03:03:28.179Z,94708.16
2017-09-30T03:05:55.858Z,94712.41
2017-09-30T03:08:23.604Z,94707.61
2017-09-30T03:10:51.278Z,94703.80
2017-09-30T03:13:19.029Z,94701.54
2017-09-30T03:15:46.734Z,94704.42
2017-09-30T03:18:14.507Z,94704.84
2017-09-30T03:20:42.195Z,94699.80
2017-09-30T03:23:09.949Z,94700.84
2017-09-30T03:25:37.629Z,94701.64
2017-09-30T03:28:05.369Z,94699.73
2017-09-30T03:30:33.060Z,94696.25
2017-09-30T03:33:00.775Z,94692.83
2017-09-30T03:35:28.507Z,94691.16
2017-09-30T03:37:56.220Z,94696.63
2017-09-30T03:40:23.966Z,94691.52
2017-09-30T03:42:51.744Z,94690.23
2017-09-30T03:45:19.569Z,94689.70
2017-09-30T03:47:47.266Z,94696.23
2017-09-30T03:50:15.008Z,94695.50
2017-09-30T03:52:42.883Z,94693.94
2017-09-30T03:55:10.556Z,94701.66
2017-09-30T03:57:38.313Z,94697.55
2017-09-30T04:00:06.103Z,94698.08
2017-09-30T04:02:33.874Z,94697.00
2017-09-30T04:05:01.621Z,94698.44
2017-09-30T04:07:29.341Z,94700.55
2017-09-30T04:09:57.094Z,94694.44
2017-09-30T04:12:24.772Z,94699.54
2017-09-30T04:14:52.498Z,94699.07
2017-09-30T04:17:20.233Z,94703.37
2017-09-30T04:19:47.970Z,94697.14
2017-09-30T04:22:15.815Z,94688.84
2017-09-30T04:24:43.511Z,94690.95
2017-09-30T04:27:11.275Z,94688.09
2017-09-30T04:29:39.027Z,94687.80
2017-09-30T04:32:06.732Z,94687.02
2017-09-30T04:34:34.661Z,94682.82
2017-09-30T04:37:02.418Z,94688.80
2017-09-30T04:39:30.082Z,94687.42
2017-09-30T04:41:57.841Z,94686.40
2017-09-30T04:44:25.594Z,94683.91
2017-09-30T04:46:53.295Z,94677.34
2017-09-30T04:49:21.004Z,94676.66
2017-09-30T04:51:49.835Z,94680.39
2017-09-30T04:54:17.533Z,94674.95
2017-09-30T04:56:45.281Z,94677.66
2017-09-30T04:59:12.969Z,94688.28
2017-09-30T05:01:40.827Z,94683.51
2017-09-30T05:04:08.524Z,94682.45
2017-09-30T05:06:36.354Z,94687.09
2017-09-30T05:09:04.293Z,94684.29
2017-09-30T05:11:31.973Z,94679.45
2017-09-30T05:13:59.677Z,94684.81
2017-09-30T05:16:27.449Z,94691.84
2017-09-30T05:18:55.274Z,94686.48
2017-09-30T05:21:22.978Z,94692.44
2017-09-30T05:23:50.806Z,94689.33
2017-09-30T05:26:18.526Z,94681.97
2017-09-30T05:28:46.264Z,94694.46
2017-09-30T05:31:14.069Z,94690.17
2017-09-30T05:33:41.791Z,94691.94
2017-09-30T05:36:09.573Z,94692.55
2017-09-30T05:38:37.289Z,94695.03
2017-09-30T05:41:05.142Z,94697.97
2017-09-30T05:43:32.820Z,94698.55
2017-09-30T05:46:00.663Z,94690.16
2017-09-30T05:48:28.418Z,94690.95
2017-09-30T05:50:56.162Z,94684.65
2017-09-30T05:53:23.836Z,94688.20
2017-09-30T05:55:51.609Z,94693.27
2017-09-30T05:58:19.281Z,94688.97
2017-09-30T06:00:47.041Z,94691.73
2017-09-30T06:03:14.736Z,94691.38
2017-09-30T06:05:42.468Z,94692.69
2017-09-30T06:08:10.142Z,94700.45
2017-09-30T06:10:37.853Z,94699.91
2017-09-30T06:13:05.603Z,94701.62
2017-09-30T06:15:33.350Z,94699.53
2017-09-30T06:18:01.130Z,94703.17
2017-09-30T06:20:28.862Z,94706.27
2017-09-30T06:22:57.342Z,94708.08
2017-09-30T06:25:25.008Z,94703.48
2017-09-30T06:27:54.867Z,94706.23
2017-09-30T06:30:22.784Z,94705.43
2017-09-30T06:32:50.593Z,94700.28
2017-09-30T06:35:18.503Z,94693.85
2017-09-30T06:37:46.819Z,94692.35
2017-09-30T06:40:15.510Z,94693.95
2017-09-30T06:42:43.318Z,94690.28
2017-09-30T06:45:11.089Z,94682.09
2017-09-30T06:47:38.812Z,94688.05
2017-09-30T06:50:06.569Z,94687.24
2017-09-30T06:52:34.343Z,94684.58
2017-09-30T06:55:02.160Z,94675.86
2017-09-30T06:57:29.852Z,94677.60
2017-09-30T06:59:57.678Z,94675.70
2017-09-30T07:02:25.433Z,94676.02
2017-09-30T07:04:53.947Z,94674.47
2017-09-30T07:07:22.385Z,94676.66
2017-09-30T07:09:50.122Z,94674.43
2017-09-30T07:12:17.923Z,94683.08
2017-09-30T07:14:45.619Z,94672.13
2017-09-30T07:17:13.465Z,94665.14
2017-09-30T07:19:41.172Z,94666.20
2017-09-30T07:22:08.871Z,94664.36
2017-09-30T07:24:36.633Z,94671.53
2017-09-30T07:27:04.392Z,94663.21
2017-09-30T07:29:32.177Z,94658.70
2017-09-30T07:31:59.904Z,94660.61
2017-09-30T07:34:27.735Z,94652.72
2017-09-30T07:36:55.472Z,94653.91
2017-09-30T07:39:23.773Z,94649.94
2017-09-30T07:41:51.524Z,94650.64
2017-09-30T07:44:19.262Z,94646.02
2017-09-30T07:46:47.068Z,94637.68
2017-09-30T07:49:14.844Z,94638.26
2017-09-30T07:51:42.530Z,94641.92
2017-09-30T07:54:10.309Z,94632.69
2017-09-30T07:56:38.039Z,94626.81
2017-09-30T07:59:05.964Z,94621.61
2017-09-30T08:01:33.732Z,94625.39
2017-09-30T08:04:01.424Z,94623.16
2017-09-30T08:06:29.949Z,94618.43
2017-09-30T08:08:58.338Z,94617.61
2017-09-30T08:11:26.050Z,94615.73
2017-09-30T08:13:53.792Z,94620.61
2017-09-30T08:16:22.633Z,94614.28
2017-09-30T08:18:50.388Z,94609.19
2017-09-30T08:21:18.093Z,94603.75
2017-09-30T08:23:45.853Z,94604.80
2017-09-30T08:26:13.574Z,94599.33
2017-09-30T08:28:41.374Z,94592.83
2017-09-30T08:31:09.067Z,94594.91
2017-09-30T08:33:36.806Z,94590.12
2017-09-30T08:36:04.591Z,94588.87
2017-09-30T08:38:32.435Z,94588.17
2017-09-30T08:41:00.162Z,94580.23
2017-09-30T08:43:28.040Z,94582.93
2017-09-30T08:45:55.733Z,94583.44
2017-09-30T08:48:24.697Z,94582.00
2017-09-30T08:50:52.449Z,94585.17
2017-09-30T08:53:20.170Z,94583.73
2017-09-30T08:55:47.950Z,94577.95
2017-09-30T09:03:53.807Z,94571.06
2017-09-30T09:06:32.311Z,94566.81
2017-09-30T09:09:02.066Z,94567.42
2017-09-30T09:11:29.827Z,94562.62
2017-09-30T09:13:57.578Z,94561.96
2017-09-30T09:16:26.350Z,94559.87
2017-09-30T09:18:54.068Z,94553.95
2017-09-30T09:21:21.885Z,94546.33
2017-09-30T09:23:49.632Z,94543.80
2017-09-30T09:26:17.433Z,94540.80
2017-09-30T09:28:45.155Z,94539.17
2017-09-30T09:31:12.944Z,94538.53
2017-09-30T09:33:40.684Z,94535.00
2017-09-30T09:36:08.473Z,94528.66
2017-09-30T09:38:36.181Z,94530.08
2017-09-30T09:41:03.940Z,94522.77
2017-09-30T09:43:31.718Z,94522.34
2017-09-30T09:45:59.639Z,94519.03
2017-09-30T09:48:27.492Z,94510.07
2017-09-30T09:50:56.036Z,94507.97
2017-09-30T09:53:23.779Z,94501.73
2017-09-30T09:55:52.637Z,94501.20
2017-09-30T09:58:20.446Z,94495.39
2017-09-30T10:00:48.281Z,94493.45
2017-09-30T10:03:16.921Z,94491.22
2017-09-30T10:05:45.167Z,94479.78
2017-09-30T10:08:13.104Z,94477.38
2017-09-30T10:10:41.186Z,94482.38
2017-09-30T10:13:09.906Z,94471.44
2017-09-30T10:15:37.730Z,94474.90
2017-09-30T10:18:05.504Z,94477.72
2017-09-30T10:20:33.321Z,94476.92
2017-09-30T10:23:01.091Z,94464.71
2017-09-30T10:25:28.817Z,94469.34
2017-09-30T10:27:57.506Z,94458.45
2017-09-30T10:30:25.270Z,94466.96
2017-09-30T10:32:53.050Z,94464.43
2017-09-30T10:35:20.859Z,94451.08
2017-09-30T10:37:48.607Z,94446.34
2017-09-30T10:40:16.285Z,94447.61
2017-09-30T10:42:43.992Z,94447.70
2017-09-30T10:45:11.765Z,94434.94
2017-09-30T10:47:39.613Z,94435.74
2017-09-30T10:50:07.372Z,94429.66
2017-09-30T10:52:35.109Z,94427.45
2017-09-30T10:55:02.983Z,94426.53
2017-09-30T10:57:30.705Z,94424.33
2017-09-30T10:59:59.370Z,94423.82
2017-09-30T11:02:28.036Z,94416.45
2017-09-30T11:04:56.932Z,94414.59
2017-09-30T11:07:26.105Z,94410.81
2017-09-30T11:09:54.938Z,94407.86
2017-09-30T11:12:25.265Z,94406.56
2017-09-30T11:14:54.827Z,94402.00
2017-09-30T11:17:23.851Z,94403.81
2017-09-30T11:19:52.899Z,94396.84
2017-09-30T11:22:20.650Z,94393.79
2017-09-30T11:24:49.345Z,94395.58
2017-09-30T11:27:17.120Z,94392.84
2017-09-30T11:29:45.063Z,94379.48
2017-09-30T11:32:12.741Z,94374.47
2017-09-30T11:34:41.543Z,94367.70
2017-09-30T11:37:09.258Z,94369.92
2017-09-30T11:39:36.963Z,94368.36
2017-09-30T11:42:04.747Z,94362.03
2017-09-30T11:44:32.463Z,94357.72
2017-09-30T11:47:00.350Z,94359.18
2017-09-30T11:49:28.729Z,94362.07
2017-09-30T11:51:56.576Z,94352.69
2017-09-30T11:54:24.290Z,94342.23
2017-09-30T11:56:52.180Z,94340.61
2017-09-30T11:59:19.921Z,94343.23
2017-09-30T12:01:47.710Z,94337.16
2017-09-30T12:04:15.621Z,94331.77
2017-09-30T12:06:43.382Z,94329.78
2017-09-30T12:09:11.108Z,94325.95
2017-09-30T12:11:38.902Z,94326.47
2017-09-30T12:14:06.884Z,94324.59
2017-09-30T12:16:34.745Z,94320.23
2017-09-30T12:19:02.689Z,94323.70
2017-09-30T12:21:30.453Z,94315.45
2017-09-30T12:23:58.249Z,94312.59
2017-09-30T12:26:26.055Z,94310.81
2017-09-30T12:28:53.799Z,94299.08
2017-09-30T12:31:21.601Z,94308.99
2017-09-30T12:33:49.341Z,94301.27
2017-09-30T12:36:17.741Z,94300.12
2017-09-30T12:38:45.582Z,94302.33
2017-09-30T12:41:13.422Z,94295.21
2017-09-30T12:43:41.202Z,94294.16
2017-09-30T12:46:08.909Z,94290.24
2017-09-30T12:48:36.695Z,94288.73
2017-09-30T12:51:04.406Z,94283.84
2017-09-30T12:53:32.373Z,94283.71
2017-09-30T12:56:00.088Z,94280.07
2017-09-30T12:58:27.917Z,94279.13
2017-09-30T13:00:55.682Z,94285.67
2017-09-30T13:03:23.502Z,94287.14
2017-09-30T13:05:51.206Z,94279.53
2017-09-30T13:08:18.962Z,94275.09
2017-09-30T13:10:46.746Z,94277.31
2017-09-30T13:13:14.466Z,94274.18
2017-09-30T13:15:42.211Z,94272.14
2017-09-30T13:18:09.998Z,94270.41
2017-09-30T13:20:37.727Z,94271.54
2017-09-30T13:23:05.446Z,94260.87
2017-09-30T13:25:33.211Z,94274.20
2017-09-30T13:28:00.908Z,94274.39
2017-09-30T13:30:28.673Z,94269.43
2017-09-30T13:32:56.412Z,94265.05
2017-09-30T13:35:24.093Z,94264.17
2017-09-30T13:37:51.880Z,94265.02
2017-09-30T13:40:19.627Z,94263.84
2017-09-30T13:42:47.381Z,94258.19
2017-09-30T13:45:15.785Z,94266.81
2017-09-30T13:47:43.950Z,94266.98
2017-09-30T13:50:11.780Z,94266.95
2017-09-30T13:52:39.496Z,94264.33
2017-09-30T13:55:07.312Z,94269.13
2017-09-30T13:57:35.098Z,94261.17
2017-09-30T14:00:02.880Z,94264.87
2017-09-30T14:02:30.622Z,94263.39
2017-09-30T14:04:58.402Z,94266.81
2017-09-30T14:07:26.115Z,94270.91
2017-09-30T14:09:53.875Z,94267.01
2017-09-30T14:12:21.581Z,94265.64
2017-09-30T14:14:49.363Z,94263.38
2017-09-30T14:17:17.054Z,94258.03
2017-09-30T14:19:44.896Z,94269.05
2017-09-30T14:22:12.694Z,94262.19
2017-09-30T14:24:40.493Z,94261.13
2017-09-30T14:27:08.206Z,94265.88
2017-09-30T14:29:36.054Z,94268.00
2017-09-30T14:32:03.829Z,94266.88
2017-09-30T14:34:31.585Z,94269.27
2017-09-30T14:36:59.315Z,94266.84
2017-09-30T14:39:27.087Z,94267.77
2017-09-30T14:41:54.857Z,94267.15
2017-09-30T14:44:23.834Z,94272.94
2017-09-30T14:46:52.274Z,94273.81
2017-09-30T14:49:20.009Z,94268.34
2017-09-30T14:51:47.958Z,94276.89
2017-09-30T14:54:16.925Z,94268.34
2017-09-30T14:56:44.616Z,94272.02
2017-09-30T14:59:12.366Z,94278.36
2017-09-30T15:01:40.139Z,94275.44
2017-09-30T15:04:07.847Z,94274.79
2017-09-30T15:06:35.603Z,94277.55
2017-09-30T15:09:03.464Z,94278.23
2017-09-30T15:11:31.314Z,94278.70
2017-09-30T15:13:59.029Z,94282.33
2017-09-30T15:16:27.495Z,94278.10
2017-09-30T15:18:55.909Z,94286.45
2017-09-30T15:21:23.660Z,94289.55
2017-09-30T15:23:51.437Z,94292.75
2017-09-30T15:26:19.161Z,94295.62
2017-09-30T15:28:46.885Z,94301.49
2017-09-30T15:31:14.750Z,94296.81
2017-09-30T15:33:42.485Z,94302.22
2017-09-30T15:36:10.280Z,94294.55
2017-09-30T15:38:37.996Z,94302.09
2017-09-30T15:41:05.753Z,94298.80
2017-09-30T15:43:33.501Z,94303.80
2017-09-30T15:46:01.281Z,94309.77
2017-09-30T15:48:29.029Z,94302.02
2017-09-30T15:50:57.872Z,94312.91
2017-09-30T15:53:25.679Z,94317.51
2017-09-30T15:55:54.169Z,94312.31
2017-09-30T15:58:21.990Z,94314.66
2017-09-30T16:00:49.795Z,94315.28
2017-09-30T16:03:17.529Z,94316.44
2017-09-30T16:05:45.300Z,94318.61
2017-09-30T16:08:13.034Z,94323.22
2017-09-30T16:10:40.849Z,94320.45
2017-09-30T16:13:08.641Z,94326.67
2017-09-30T16:15:36.409Z,94327.46
2017-09-30T16:18:04.105Z,94328.80
2017-09-30T16:20:31.965Z,94335.22
2017-09-30T16:22:59.837Z,94327.66
2017-09-30T16:25:27.578Z,94337.81
2017-09-30T16:27:55.353Z,94342.90
2017-09-30T16:30:23.063Z,94345.70
2017-09-30T16:32:50.807Z,94335.91
2017-09-30T16:35:18.515Z,94335.14
2017-09-30T16:37:46.320Z,94335.41
2017-09-30T16:40:14.078Z,94342.88
2017-09-30T16:42:41.854Z,94343.44
2017-09-30T16:45:10.491Z,94348.08
2017-09-30T16:47:39.337Z,94349.70
2017-09-30T16:50:07.029Z,94349.68
2017-09-30T16:52:34.766Z,94357.36
2017-09-30T16:55:02.487Z,94361.61
2017-09-30T16:57:30.274Z,94359.36
2017-09-30T16:59:58.005Z,94360.30
2017-09-30T17:02:25.790Z,94358.89
2017-09-30T17:04:53.489Z,94359.90
2017-09-30T17:07:21.238Z,94366.28
2017-09-30T17:09:48.971Z,94359.13
2017-09-30T17:12:16.758Z,94366.83
2017-09-30T17:14:44.495Z,94365.24
2017-09-30T17:17:12.265Z,94367.83
2017-09-30T17:19:40.084Z,94373.69
2017-09-30T17:22:07.892Z,94372.54
2017-09-30T17:24:35.748Z,94374.48
2017-09-30T17:27:03.511Z,94384.36
2017-09-30T17:29:31.308Z,94384.67
2017-09-30T17:31:59.191Z,94383.94
2017-09-30T17:34:26.964Z,94387.06
2017-09-30T17:36:54.981Z,94388.42
2017-09-30T17:39:22.993Z,94381.16
2017-09-30T17:41:51.326Z,94387.40
2017-09-30T17:44:19.117Z,94387.08
2017-09-30T17:46:46.834Z,94392.62
2017-09-30T17:49:14.667Z,94390.54
2017-09-30T17:51:43.321Z,94391.16
2017-09-30T17:54:11.044Z,94396.55
2017-09-30T17:56:39.863Z,94403.64
2017-09-30T17:59:08.260Z,94403.81
2017-09-30T18:01:36.281Z,94406.87
2017-09-30T18:04:04.068Z,94408.95
2017-09-30T18:06:31.908Z,94411.67
2017-09-30T18:08:59.788Z,94407.41
2017-09-30T18:11:27.630Z,94409.15
2017-09-30T18:13:55.419Z,94403.92
2017-09-30T18:16:23.407Z,94409.97
2017-09-30T18:18:51.559Z,94413.99
2017-09-30T18:21:19.735Z,94409.35
2017-09-30T18:23:47.543Z,94412.17
2017-09-30T18:26:15.873Z,94407.01
2017-09-30T18:28:43.655Z,94409.46
2017-09-30T18:31:11.594Z,94415.82
2017-09-30T18:33:39.589Z,94418.71
2017-09-30T18:36:07.503Z,94420.08
2017-09-30T18:38:35.441Z,94421.96
2017-09-30T18:41:03.357Z,94425.23
2017-09-30T18:43:31.098Z,94422.99
2017-09-30T18:45:59.156Z,94425.93
2017-09-30T18:48:26.958Z,94424.48
2017-09-30T18:50:55.958Z,94429.66
2017-09-30T18:53:23.707Z,94429.77
2017-09-30T18:55:51.452Z,94435.12
2017-09-30T18:58:19.271Z,94442.57
2017-09-30T19:00:47.480Z,94443.18
2017-09-30T19:03:15.406Z,94449.83
2017-09-30T19:05:43.213Z,94444.48
2017-09-30T19:08:11.592Z,94448.06
2017-09-30T19:10:39.572Z,94445.88
2017-09-30T19:13:07.491Z,94448.27
2017-09-30T19:15:35.361Z,94454.19
2017-09-30T19:18:04.230Z,94450.56
2017-09-30T19:20:33.083Z,94446.55
2017-09-30T19:23:00.864Z,94450.44
2017-09-30T19:25:28.657Z,94452.77
2017-09-30T19:27:57.644Z,94455.83
2017-09-30T19:30:25.776Z,94450.39
2017-09-30T19:32:53.579Z,94454.89
2017-09-30T19:35:21.709Z,94450.77
2017-09-30T19:37:49.522Z,94447.81
2017-09-30T19:40:17.424Z,94454.69
2017-09-30T19:42:45.182Z,94457.42
2017-09-30T19:45:13.102Z,94451.38
2017-09-30T19:47:41.770Z,94454.72
2017-09-30T19:50:09.532Z,94457.58
2017-09-30T19:52:37.527Z,94456.15
2017-09-30T19:55:05.902Z,94447.66
2017-09-30T19:57:33.849Z,94456.93
2017-09-30T20:00:02.536Z,94459.19
2017-09-30T20:02:31.493Z,94455.09
2017-09-30T20:04:59.418Z,94451.89
2017-09-30T20:07:27.787Z,94453.31
2017-09-30T20:09:55.948Z,94453.20
2017-09-30T20:12:25.174Z,94452.48
2017-09-30T20:14:53.185Z,94447.80
2017-09-30T20:17:21.417Z,94451.17
2017-09-30T20:19:50.458Z,94453.28
2017-09-30T20:22:18.235Z,94452.00
2017-09-30T20:24:46.662Z,94453.00
2017-09-30T20:27:14.847Z,94451.38
2017-09-30T20:29:42.591Z,94448.20
2017-09-30T20:32:10.401Z,94444.75
2017-09-30T20:34:38.185Z,94449.48
2017-09-30T20:37:05.967Z,94456.23
2017-09-30T20:39:34.897Z,94455.69
2017-09-30T20:42:02.702Z,94451.08
2017-09-30T20:44:30.467Z,94451.27
2017-09-30T20:46:58.192Z,94451.08
2017-09-30T20:49:25.962Z,94456.77
2017-09-30T20:51:53.733Z,94455.38
2017-09-30T20:54:22.976Z,94460.80
2017-09-30T20:56:50.706Z,94459.39
2017-09-30T20:59:18.470Z,94455.70
2017-09-30T21:01:46.812Z,94462.49
2017-09-30T21:04:14.501Z,94462.92
2017-09-30T21:06:42.260Z,94461.14
2017-09-30T21:09:10.078Z,94462.33
2017-09-30T21:11:37.930Z,94461.08
2017-09-30T21:14:05.961Z,94452.91
2017-09-30T21:16:33.664Z,94448.31
2017-09-30T21:19:01.557Z,94456.18
2017-09-30T21:21:29.392Z,94457.30
2017-09-30T21:23:58.615Z,94448.24
2017-09-30T21:26:26.397Z,94457.17
2017-09-30T21:28:54.184Z,94450.73
2017-09-30T21:31:21.941Z,94457.48
2017-09-30T21:33:50.628Z,94455.78
2017-09-30T21:36:18.328Z,94451.88
2017-09-30T21:38:46.526Z,94447.70
2017-09-30T21:41:14.316Z,94449.92
2017-09-30T21:43:42.069Z,94457.28
2017-09-30T21:46:09.984Z,94448.39
2017-09-30T21:48:37.739Z,94452.08
2017-09-30T21:51:05.512Z,94453.39
2017-09-30T21:53:33.450Z,94449.70
2017-09-30T21:56:01.266Z,94443.13
2017-09-30T21:58:29.130Z,94439.61
2017-09-30T22:00:56.900Z,94445.82
2017-09-30T22:03:24.601Z,94447.28
2017-09-30T22:05:52.434Z,94450.27
2017-09-30T22:08:20.127Z,94447.92
2017-09-30T22:10:47.820Z,94451.58
2017-09-30T22:13:15.565Z,94454.48
2017-09-30T22:15:43.339Z,94451.50
2017-09-30T22:18:11.117Z,94449.24
2017-09-30T22:20:38.882Z,94456.42
2017-09-30T22:23:06.649Z,94448.95
2017-09-30T22:25:34.484Z,94455.14
2017-09-30T22:28:02.218Z,94453.84
2017-09-30T22:30:29.934Z,94452.13
2017-09-30T22:32:57.691Z,94447.39
2017-09-30T22:35:25.544Z,94453.48
2017-09-30T22:37:54.069Z,94451.98
2017-09-30T22:40:21.789Z,94450.48
2017-09-30T22:42:50.277Z,94450.89
2017-09-30T22:45:17.958Z,94452.34
2017-09-30T22:47:45.744Z,94457.73
2017-09-30T22:50:13.454Z,94452.34
2017-09-30T22:52:41.795Z,94455.34
2017-09-30T22:55:09.627Z,94459.42
2017-09-30T22:57:38.665Z,94463.42
2017-09-30T23:00:06.480Z,94461.73
2017-09-30T23:02:34.230Z,94458.73
2017-09-30T23:05:02.149Z,94460.13
2017-09-30T23:07:29.837Z,94458.84
2017-09-30T23:09:57.500Z,94462.32
2017-09-30T23:12:25.222Z,94458.67
2017-09-30T23:14:52.971Z,94451.89
2017-09-30T23:17:20.667Z,94455.58
2017-09-30T23:19:49.274Z,94452.79
2017-09-30T23:22:17.024Z,94455.78
2017-09-30T23:24:44.736Z,94460.06
2017-09-30T23:27:12.433Z,94454.55
2017-09-30T23:29:40.266Z,94455.48
2017-09-30T23:32:07.939Z,94453.59
2017-09-30T23:34:35.638Z,94458.67
2017-09-30T23:37:03.387Z,94455.08
2017-09-30T23:39:31.104Z,94461.46
2017-09-30T23:41:58.807Z,94460.37
2017-09-30T23:44:26.540Z,94455.78
2017-09-30T23:46:54.293Z,94461.13
2017-09-30T23:49:22.042Z,94464.80
2017-09-30T23:51:49.834Z,94464.61
2017-09-30T23:54:17.581Z,94466.80
2017-09-30T23:56:45.326Z,94464.72
2017-09-30T23:59:13.038Z,94463.62
